Time;durP1;ratioP1;P1;durP2;ratioP2;P2;SDS_P1;SDS_P2;PMS_P1;PMS_P2;Temp;Humidity;BMP_temperature;BMP_pressure;BME280_temperature;BME280_humidity;BME280_pressure;Samples;Min_cycle;Max_cycle;Signal;HPM_P1;HPM_P2
2023/04/01 00:00:29;;;;;;;13.05;9.63;;;9.20;99.90;;;;;;5073282;28;20048;-54
2023/04/01 00:02:55;;;;;;;11.98;9.70;;;9.30;99.90;;;;;;5074086;28;20097;-53
2023/04/01 00:05:21;;;;;;;12.65;9.30;;;9.20;99.90;;;;;;5072823;28;20039;-53
2023/04/01 00:07:46;;;;;;;11.32;9.07;;;9.20;99.90;;;;;;5072484;28;20531;-52
2023/04/01 00:10:13;;;;;;;12.18;9.75;;;9.10;99.90;;;;;;5073234;28;20032;-52
2023/04/01 00:12:39;;;;;;;14.45;10.25;;;9.20;99.90;;;;;;5073234;28;20040;-53
2023/04/01 00:15:07;;;;;;;11.55;8.88;;;9.20;99.90;;;;;;5072711;28;20525;-53
2023/04/01 00:17:34;;;;;;;15.15;9.10;;;9.20;99.90;;;;;;5072478;28;20089;-52
2023/04/01 00:20:00;;;;;;;12.68;8.90;;;9.30;99.90;;;;;;5072771;28;21089;-53
2023/04/01 00:22:26;;;;;;;12.23;9.23;;;9.20;99.90;;;;;;5073446;28;20640;-52
2023/04/01 00:24:53;;;;;;;11.82;8.98;;;9.10;99.90;;;;;;5072824;28;20805;-53
2023/04/01 00:27:19;;;;;;;11.20;8.90;;;9.20;99.90;;;;;;5072258;28;20040;-53
2023/04/01 00:29:47;;;;;;;12.75;8.52;;;9.20;99.90;;;;;;5072374;28;20047;-53
2023/04/01 00:32:13;;;;;;;12.90;9.00;;;9.30;99.90;;;;;;5073960;28;20055;-52
2023/04/01 00:34:39;;;;;;;14.77;9.25;;;10.10;99.90;;;;;;5073093;28;20056;-52
2023/04/01 00:37:06;;;;;;;11.27;8.45;;;9.40;99.90;;;;;;5073280;28;20466;-53
2023/04/01 00:39:34;;;;;;;13.80;10.05;;;9.40;99.90;;;;;;5074678;28;20043;-53
2023/04/01 00:42:00;;;;;;;13.73;9.63;;;9.40;99.90;;;;;;5074426;28;20062;-52
2023/04/01 00:44:29;;;;;;;12.50;9.77;;;9.50;99.90;;;;;;5073381;28;20047;-53
2023/04/01 00:46:56;;;;;;;13.35;10.07;;;11.10;99.90;;;;;;5073484;28;20109;-53
2023/04/01 00:49:26;;;;;;;13.68;10.27;;;9.40;99.90;;;;;;5072818;28;20465;-52
2023/04/01 00:51:55;;;;;;;15.38;9.90;;;9.30;99.90;;;;;;5072927;28;20047;-54
2023/04/01 00:54:23;;;;;;;15.45;9.57;;;9.20;99.90;;;;;;5072686;28;20047;-53
2023/04/01 00:56:57;;;;;;;12.95;10.38;;;9.30;99.90;;;;;;5072741;28;20647;-52
2023/04/01 00:59:27;;;;;;;11.68;9.95;;;9.30;99.90;;;;;;5072923;28;20509;-51
2023/04/01 01:01:53;;;;;;;13.18;10.10;;;9.30;99.90;;;;;;5072284;28;20043;-51
2023/04/01 01:04:30;;;;;;;13.07;10.13;;;9.20;99.90;;;;;;5073175;28;20423;-50
2023/04/01 01:07:22;;;;;;;12.52;9.45;;;9.40;99.90;;;;;;5072267;28;21393;-53
2023/04/01 01:10:15;;;;;;;12.98;9.52;;;9.40;99.90;;;;;;5068452;28;20048;-53
2023/04/01 01:12:58;;;;;;;13.65;10.25;;;10.30;99.90;;;;;;5071526;28;20044;-53
2023/04/01 01:15:30;;;;;;;;;;;9.30;99.90;;;;;;5071913;28;20429;-55
2023/04/01 01:18:38;;;;;;;13.32;9.73;;;9.30;99.90;;;;;;5072123;28;19984;-51
2023/04/01 01:21:17;;;;;;;13.98;10.00;;;9.30;99.90;;;;;;5047317;28;20087;-52
2023/04/01 01:24:03;;;;;;;13.60;9.48;;;9.30;99.90;;;;;;5071749;28;20047;-51
2023/04/01 01:26:40;;;;;;;14.27;10.05;;;9.40;99.90;;;;;;5071444;28;20113;-53
2023/04/01 01:29:06;;;;;;;14.55;9.32;;;9.40;99.90;;;;;;5071555;28;20052;-53
2023/04/01 01:31:44;;;;;;;13.00;9.02;;;9.20;99.90;;;;;;5071934;28;20036;-54
2023/04/01 01:34:18;;;;;;;13.15;9.43;;;9.30;99.90;;;;;;5072332;28;20556;-52
2023/04/01 01:36:47;;;;;;;12.65;9.55;;;9.40;99.90;;;;;;5073077;28;20546;-52
2023/04/01 01:39:14;;;;;;;13.32;9.07;;;9.40;99.90;;;;;;5072562;28;20079;-52
2023/04/01 01:41:42;;;;;;;11.27;8.82;;;9.20;99.90;;;;;;5071971;28;20094;-53
2023/04/01 01:44:11;;;;;;;13.55;9.63;;;9.40;99.90;;;;;;5071121;28;20186;-52
2023/04/01 01:46:39;;;;;;;12.95;9.30;;;9.30;99.90;;;;;;5071244;28;20075;-54
2023/04/01 01:49:08;;;;;;;13.52;9.63;;;9.50;99.90;;;;;;5069690;28;20040;-54
2023/04/01 01:51:34;;;;;;;16.15;9.93;;;10.50;99.90;;;;;;5070959;28;20036;-55
2023/04/01 01:54:00;;;;;;;14.55;9.77;;;9.40;99.90;;;;;;5072278;28;20059;-54
2023/04/01 01:56:29;;;;;;;12.77;9.75;;;9.30;99.90;;;;;;5071517;28;20036;-53
2023/04/01 01:59:01;;;;;;;16.02;9.90;;;9.40;99.90;;;;;;5071774;28;20058;-55
2023/04/01 02:01:30;;;;;;;13.38;10.20;;;9.20;99.90;;;;;;5071460;28;20040;-55
2023/04/01 02:03:58;;;;;;;16.25;9.90;;;9.20;99.90;;;;;;5071939;28;20032;-53
2023/04/01 02:06:28;;;;;;;12.90;10.25;;;9.40;99.90;;;;;;5072790;28;20171;-54
2023/04/01 02:08:59;;;;;;;14.85;9.07;;;9.30;99.90;;;;;;5072431;28;20056;-54
2023/04/01 02:11:38;;;;;;;16.27;10.05;;;9.30;99.90;;;;;;5073443;28;20040;-53
2023/04/01 02:14:29;;;;;;;14.07;9.95;;;9.50;99.90;;;;;;5072096;28;20044;-55
2023/04/01 02:17:12;;;;;;;13.25;9.27;;;9.30;99.90;;;;;;5069573;28;20044;-54
2023/04/01 02:19:41;;;;;;;16.85;9.95;;;9.30;99.90;;;;;;5073798;28;20519;-55
2023/04/01 02:22:11;;;;;;;12.50;9.77;;;9.30;99.90;;;;;;5076026;28;20048;-54
2023/04/01 02:24:39;;;;;;;15.43;10.65;;;9.40;99.90;;;;;;5076617;28;20048;-53
2023/04/01 02:27:05;;;;;;;13.50;9.10;;;9.50;99.90;;;;;;5076645;28;20105;-59
2023/04/01 02:29:31;;;;;;;12.75;9.23;;;9.40;99.90;;;;;;5075580;28;20024;-54
2023/04/01 02:31:58;;;;;;;14.02;10.30;;;9.60;99.90;;;;;;5073514;28;20445;-54
2023/04/01 02:34:25;;;;;;;13.63;10.35;;;9.50;99.90;;;;;;5074792;28;20045;-54
2023/04/01 02:36:51;;;;;;;17.02;10.85;;;9.20;99.90;;;;;;5076042;28;20115;-54
2023/04/01 02:39:17;;;;;;;16.63;10.68;;;9.40;99.90;;;;;;5074699;28;20040;-53
2023/04/01 02:41:45;;;;;;;16.83;11.02;;;9.40;99.90;;;;;;5075352;28;20043;-53
2023/04/01 02:44:12;;;;;;;16.60;11.90;;;9.30;99.90;;;;;;5074963;28;20044;-53
2023/04/01 02:46:38;;;;;;;14.70;11.32;;;9.30;99.90;;;;;;5074432;28;20046;-52
2023/04/01 02:49:04;;;;;;;18.17;12.38;;;9.40;99.90;;;;;;5074309;28;20032;-54
2023/04/01 02:51:30;;;;;;;18.55;12.10;;;9.30;99.90;;;;;;5088653;28;20044;-55
2023/04/01 02:53:56;;;;;;;19.02;12.32;;;9.30;99.90;;;;;;5074328;28;20063;-54
2023/04/01 02:56:22;;;;;;;16.02;11.82;;;9.20;99.90;;;;;;5074663;28;21145;-54
2023/04/01 02:58:48;;;;;;;16.23;12.52;;;9.50;99.90;;;;;;5073435;28;20064;-54
2023/04/01 03:01:14;;;;;;;16.08;10.93;;;9.40;99.90;;;;;;5074502;28;20032;-54
2023/04/01 03:03:40;;;;;;;16.92;11.13;;;9.50;99.90;;;;;;5074019;28;20052;-54
2023/04/01 03:06:12;;;;;;;15.20;11.57;;;9.50;99.90;;;;;;5073731;28;20110;-54
2023/04/01 03:08:38;;;;;;;20.20;12.23;;;9.60;99.90;;;;;;5075380;28;20089;-53
2023/04/01 03:11:05;;;;;;;20.23;12.90;;;9.20;99.90;;;;;;5075581;28;20808;-54
2023/04/01 03:13:30;;;;;;;18.38;11.32;;;9.40;99.90;;;;;;5074118;28;20538;-54
2023/04/01 03:15:56;;;;;;;15.82;10.93;;;9.40;99.90;;;;;;5073866;28;20040;-53
2023/04/01 03:18:22;;;;;;;19.45;12.50;;;10.30;99.90;;;;;;5054505;28;20795;-54
2023/04/01 03:20:48;;;;;;;16.50;10.35;;;9.40;99.90;;;;;;5074889;28;20054;-53
2023/04/01 03:23:14;;;;;;;19.25;12.45;;;9.40;99.90;;;;;;5089072;28;20599;-52
2023/04/01 03:25:40;;;;;;;17.63;11.82;;;9.40;99.90;;;;;;5075283;28;20032;-55
2023/04/01 03:28:05;;;;;;;19.83;11.60;;;9.40;99.90;;;;;;5076039;28;20043;-54
2023/04/01 03:30:31;;;;;;;17.52;11.15;;;9.40;99.90;;;;;;5072666;28;20044;-54
2023/04/01 03:32:59;;;;;;;17.17;11.30;;;9.30;99.90;;;;;;5074352;28;20079;-54
2023/04/01 03:35:25;;;;;;;21.33;12.60;;;9.40;99.90;;;;;;5072800;28;20085;-54
2023/04/01 03:37:52;;;;;;;17.17;12.32;;;9.30;99.90;;;;;;5074429;28;20044;-52
2023/04/01 03:40:18;;;;;;;20.05;11.70;;;9.60;99.90;;;;;;5075644;28;20114;-53
2023/04/01 03:42:44;;;;;;;24.15;13.25;;;9.20;99.90;;;;;;5073826;28;20040;-54
2023/04/01 03:45:11;;;;;;;21.20;12.70;;;9.60;99.90;;;;;;5074031;28;20815;-53
2023/04/01 03:47:38;;;;;;;16.75;12.50;;;9.50;99.90;;;;;;5073011;28;20043;-53
2023/04/01 03:50:05;;;;;;;18.23;12.43;;;9.50;99.90;;;;;;5073152;28;20550;-53
2023/04/01 03:52:30;;;;;;;16.73;12.45;;;9.50;99.90;;;;;;5074350;28;20051;-53
2023/04/01 03:54:56;;;;;;;13.82;9.25;;;9.50;99.90;;;;;;5074246;28;20036;-53
2023/04/01 03:57:22;;;;;;;15.63;11.27;;;9.50;99.90;;;;;;5072974;28;20096;-54
2023/04/01 03:59:48;;;;;;;18.73;12.65;;;9.60;99.90;;;;;;5073006;28;20040;-53
2023/04/01 04:02:14;;;;;;;17.48;12.15;;;9.40;99.90;;;;;;5071985;28;20051;-53
2023/04/01 04:04:40;;;;;;;17.75;12.68;;;9.40;99.90;;;;;;5073671;28;20477;-53
2023/04/01 04:07:06;;;;;;;16.23;12.00;;;9.40;99.90;;;;;;5073263;28;20055;-54
2023/04/01 04:09:33;;;;;;;14.95;12.27;;;10.00;99.90;;;;;;5073561;28;20036;-53
2023/04/01 04:12:00;;;;;;;16.92;12.65;;;9.50;99.90;;;;;;5073585;28;20047;-54
2023/04/01 04:14:26;;;;;;;19.90;14.05;;;9.40;99.90;;;;;;5073342;28;20048;-54
2023/04/01 04:16:51;;;;;;;19.50;13.60;;;9.50;99.90;;;;;;5073653;28;20056;-51
2023/04/01 04:19:17;;;;;;;19.25;14.07;;;9.50;99.90;;;;;;5072462;28;20048;-53
2023/04/01 04:21:43;;;;;;;19.27;13.80;;;9.30;99.90;;;;;;5072447;28;20532;-52
2023/04/01 04:24:09;;;;;;;20.65;13.05;;;9.30;99.90;;;;;;5072442;28;20047;-53
2023/04/01 04:26:35;;;;;;;20.55;13.85;;;9.70;99.90;;;;;;5073695;28;20111;-52
2023/04/01 04:29:01;;;;;;;20.30;14.55;;;9.50;99.90;;;;;;5073116;28;20050;-52
2023/04/01 04:31:27;;;;;;;25.52;16.30;;;9.60;99.90;;;;;;5070791;28;20064;-52
2023/04/01 04:33:54;;;;;;;24.42;15.70;;;9.40;99.90;;;;;;5072851;28;20044;-53
2023/04/01 04:36:20;;;;;;;21.23;14.63;;;9.40;99.90;;;;;;5073871;28;20062;-53
2023/04/01 04:38:46;;;;;;;22.45;16.30;;;9.40;99.90;;;;;;5073643;28;20484;-54
2023/04/01 04:41:14;;;;;;;26.17;16.30;;;9.50;99.90;;;;;;5073689;28;20159;-53
2023/04/01 04:43:41;;;;;;;21.63;14.23;;;11.30;99.90;;;;;;5072892;28;20040;-54
2023/04/01 04:46:08;;;;;;;24.98;15.30;;;9.50;99.90;;;;;;5071974;28;20180;-53
2023/04/01 04:48:34;;;;;;;27.05;17.75;;;9.50;99.90;;;;;;5069543;28;20488;-53
2023/04/01 04:51:00;;;;;;;26.55;17.00;;;9.60;99.90;;;;;;5072421;28;20475;-51
2023/04/01 04:53:26;;;;;;;23.38;16.40;;;9.40;99.90;;;;;;5072319;28;20044;-52
2023/04/01 04:55:52;;;;;;;25.30;15.77;;;9.40;99.90;;;;;;5071733;28;20112;-54
2023/04/01 04:58:18;;;;;;;25.83;17.02;;;9.30;99.90;;;;;;5071717;28;20615;-53
2023/04/01 05:00:45;;;;;;;24.33;16.38;;;9.30;99.90;;;;;;5073929;28;20043;-52
2023/04/01 05:03:11;;;;;;;28.00;16.92;;;9.20;99.90;;;;;;5073750;28;20039;-53
2023/04/01 05:05:38;;;;;;;27.23;16.70;;;9.30;99.90;;;;;;5073116;28;20055;-55
2023/04/01 05:08:03;;;;;;;32.20;17.80;;;9.40;99.90;;;;;;5073104;28;20050;-50
2023/04/01 05:10:30;;;;;;;25.35;16.85;;;9.30;99.90;;;;;;5074070;28;20473;-50
2023/04/01 05:12:56;;;;;;;27.55;16.38;;;7.40;99.90;;;;;;5074715;28;20040;-53
2023/04/01 05:15:22;;;;;;;31.20;17.58;;;9.40;99.90;;;;;;5073233;28;20581;-53
2023/04/01 05:17:47;;;;;;;19.45;13.00;;;9.30;99.90;;;;;;5073699;28;20067;-50
2023/04/01 05:20:15;;;;;;;24.95;16.35;;;9.50;99.90;;;;;;5074477;28;20064;-51
2023/04/01 05:22:41;;;;;;;28.20;17.08;;;9.20;99.90;;;;;;5074490;28;20257;-53
2023/04/01 05:25:07;;;;;;;21.15;14.32;;;9.50;99.90;;;;;;5073430;28;20855;-52
2023/04/01 05:27:33;;;;;;;25.75;16.15;;;9.40;99.90;;;;;;5073768;28;20028;-55
2023/04/01 05:29:58;;;;;;;23.13;15.10;;;9.30;99.90;;;;;;5072824;28;20074;-55
2023/04/01 05:32:24;;;;;;;26.67;16.80;;;9.40;99.90;;;;;;5074095;28;20119;-52
2023/04/01 05:34:51;;;;;;;22.40;15.27;;;9.50;99.90;;;;;;5072284;28;20071;-54
2023/04/01 05:37:17;;;;;;;28.80;18.75;;;9.70;99.90;;;;;;5073317;28;20036;-54
2023/04/01 05:39:43;;;;;;;24.50;15.77;;;9.50;99.90;;;;;;5072746;28;20082;-54
2023/04/01 05:42:08;;;;;;;25.80;16.95;;;9.60;99.90;;;;;;5072829;28;20249;-52
2023/04/01 05:44:35;;;;;;;24.50;16.35;;;9.50;99.90;;;;;;5072000;28;20551;-55
2023/04/01 05:47:03;;;;;;;27.33;18.17;;;9.60;99.90;;;;;;5072693;28;20044;-55
2023/04/01 05:49:29;;;;;;;29.63;18.40;;;9.60;99.90;;;;;;5072085;28;20139;-54
2023/04/01 05:51:55;;;;;;;31.65;18.60;;;9.40;99.90;;;;;;5069802;28;20052;-55
2023/04/01 05:54:21;;;;;;;39.35;20.38;;;9.30;99.90;;;;;;5071205;28;20687;-54
2023/04/01 05:56:46;;;;;;;30.73;16.88;;;9.40;99.90;;;;;;5075363;28;20040;-55
2023/04/01 05:59:13;;;;;;;30.40;18.38;;;9.40;99.90;;;;;;5076185;28;20040;-54
2023/04/01 06:01:39;;;;;;;39.33;18.42;;;9.40;99.90;;;;;;5075055;28;20048;-54
2023/04/01 06:04:05;;;;;;;25.85;17.02;;;9.50;99.90;;;;;;5074264;28;20149;-53
2023/04/01 06:06:31;;;;;;;18.50;11.35;;;9.60;99.90;;;;;;5075892;28;20074;-54
2023/04/01 06:09:18;;;;;;;25.73;15.05;;;9.60;99.90;;;;;;5074938;28;20504;-54
2023/04/01 06:12:11;;;;;;;18.38;11.38;;;9.80;99.90;;;;;;5076146;28;20044;-51
2023/04/01 06:14:50;;;;;;;16.10;10.77;;;9.60;99.90;;;;;;5076147;28;20049;-52
2023/04/01 06:17:45;;;;;;;18.30;12.35;;;9.40;99.90;;;;;;5074578;28;20743;-53
2023/04/01 06:20:22;;;;;;;18.75;11.77;;;9.50;99.90;;;;;;5074112;28;20051;-53
2023/04/01 06:23:03;;;;;;;15.65;10.52;;;9.30;99.90;;;;;;5074698;28;20221;-53
2023/04/01 06:25:50;;;;;;;17.58;11.63;;;9.70;99.90;;;;;;5074588;28;20040;-52
2023/04/01 06:28:30;;;;;;;18.35;11.18;;;9.50;99.90;;;;;;5073875;28;20093;-52
2023/04/01 06:30:56;;;;;;;19.05;11.60;;;10.40;99.90;;;;;;5074771;28;20056;-51
2023/04/01 06:33:33;;;;;;;17.83;11.45;;;9.60;99.90;;;;;;5073884;28;20051;-53
2023/04/01 06:36:21;;;;;;;19.23;11.35;;;9.40;99.90;;;;;;5075861;28;20076;-49
2023/04/01 06:39:03;;;;;;;16.90;11.00;;;9.40;99.90;;;;;;5076958;28;20543;-52
2023/04/01 06:41:54;;;;;;;14.60;9.70;;;9.50;99.90;;;;;;5076982;28;20047;-51
2023/04/01 06:44:28;;;;;;;19.05;12.15;;;9.40;99.90;;;;;;5076251;28;20121;-53
2023/04/01 06:47:45;;;;;;;15.85;11.90;;;9.60;99.90;;;;;;5076918;28;20047;-51
2023/04/01 06:50:30;;;;;;;18.23;12.80;;;9.50;99.90;;;;;;5066886;28;20044;-53
2023/04/01 06:53:21;;;;;;;18.38;13.40;;;9.70;99.90;;;;;;5075605;28;20044;-52
2023/04/01 06:56:12;;;;;;;20.95;13.27;;;9.60;99.90;;;;;;5075503;28;20504;-51
2023/04/01 06:59:01;;;;;;;16.75;11.60;;;9.70;99.90;;;;;;5075589;28;20052;-52
2023/04/01 07:01:54;;;;;;;19.33;13.85;;;9.70;99.90;;;;;;5075380;28;20052;-50
2023/04/01 07:04:37;;;;;;;17.85;12.45;;;9.70;99.90;;;;;;5075381;28;20502;-52
2023/04/01 07:07:12;;;;;;;22.95;13.93;;;9.80;99.90;;;;;;5075645;28;20444;-53
2023/04/01 07:09:41;;;;;;;21.23;16.00;;;9.80;99.90;;;;;;5075560;28;20389;-51
2023/04/01 07:12:31;;;;;;;19.25;14.98;;;10.00;99.90;;;;;;5073622;28;20515;-51
2023/04/01 07:15:01;;;;;;;18.63;12.50;;;9.80;99.90;;;;;;5075482;28;20055;-52
2023/04/01 07:17:38;;;;;;;21.85;17.55;;;10.00;99.90;;;;;;5074859;28;20083;-51
2023/04/01 07:20:26;;;;;;;20.90;16.60;;;10.10;99.90;;;;;;5074798;28;20101;-52
2023/04/01 07:22:57;;;;;;;19.52;15.43;;;10.20;99.90;;;;;;5074702;28;20090;-53
2023/04/01 07:25:44;;;;;;;20.17;15.48;;;10.30;99.90;;;;;;5074301;28;20075;-51
2023/04/01 07:28:18;;;;;;;19.55;15.52;;;10.20;99.90;;;;;;5073642;28;20075;-50
2023/04/01 07:31:18;;;;;;;19.35;15.93;;;10.20;99.90;;;;;;5088298;28;20259;-52
2023/04/01 07:34:06;;;;;;;22.15;17.00;;;10.10;99.90;;;;;;5072612;28;20152;-52
2023/04/01 07:36:46;;;;;;;25.08;19.02;;;10.10;99.90;;;;;;5073347;28;20140;-49
2023/04/01 07:39:48;;;;;;;24.33;20.13;;;10.20;99.90;;;;;;5073959;28;20123;-49
2023/04/01 07:42:54;;;;;;;20.83;16.73;;;10.20;99.90;;;;;;5074190;28;20040;-52
2023/04/01 07:45:48;;;;;;;40.05;20.42;;;10.30;99.90;;;;;;5073791;28;20040;-51
2023/04/01 07:48:31;;;;;;;23.17;18.70;;;10.30;99.90;;;;;;5073676;28;20100;-50
2023/04/01 07:51:02;;;;;;;20.73;17.90;;;10.40;99.90;;;;;;5073616;28;20100;-51
2023/04/01 07:53:48;;;;;;;22.88;19.27;;;10.60;99.90;;;;;;5072222;28;20055;-52
2023/04/01 07:56:22;;;;;;;23.63;16.00;;;10.80;99.90;;;;;;5073183;28;20072;-51
2023/04/01 07:59:10;;;;;;;20.63;17.55;;;10.90;99.90;;;;;;5073008;28;20577;-52
2023/04/01 08:01:45;;;;;;;17.70;14.68;;;10.70;99.90;;;;;;5073316;28;20120;-53
2023/04/01 08:05:06;;;;;;;17.98;14.93;;;11.00;99.90;;;;;;5072703;28;20331;-53
2023/04/01 08:08:22;;;;;;;16.45;13.40;;;11.00;99.90;;;;;;5031757;28;20045;-49
2023/04/01 08:11:21;;;;;;;13.73;12.25;;;11.10;99.90;;;;;;5050252;28;20098;-51
2023/04/01 08:14:00;;;;;;;13.15;10.63;;;11.00;99.90;;;;;;5049766;28;20046;-51
2023/04/01 08:16:58;;;;;;;16.23;12.15;;;10.90;99.90;;;;;;5070176;28;20059;-51
2023/04/01 08:19:35;;;;;;;14.93;12.70;;;11.00;99.90;;;;;;5074584;28;20139;-51
2023/04/01 08:22:09;;;;;;;15.98;13.32;;;10.50;99.90;;;;;;5074322;28;20048;-51
2023/04/01 08:24:42;;;;;;;15.63;13.48;;;10.60;99.90;;;;;;5073656;28;20044;-52
2023/04/01 08:27:28;;;;;;;15.70;13.38;;;10.70;99.90;;;;;;5071623;28;20036;-50
2023/04/01 08:30:21;;;;;;;16.25;12.70;;;10.70;99.90;;;;;;5073833;28;20051;-49
2023/04/01 08:33:05;;;;;;;20.88;16.77;;;10.90;99.90;;;;;;5073887;28;20055;-52
2023/04/01 08:35:52;;;;;;;22.45;16.90;;;10.70;99.90;;;;;;5073881;28;20048;-50
2023/04/01 08:38:28;;;;;;;18.90;14.93;;;10.60;99.90;;;;;;5072920;28;20043;-52
2023/04/01 08:41:25;;;;;;;16.75;14.75;;;10.60;99.90;;;;;;5073027;28;20064;-51
2023/04/01 08:44:24;;;;;;;16.90;14.98;;;10.60;99.90;;;;;;5074401;28;20326;-49
2023/04/01 08:47:09;;;;;;;17.95;15.23;;;10.70;99.90;;;;;;5072980;28;20109;-52
2023/04/01 08:49:50;;;;;;;17.77;15.50;;;10.80;99.90;;;;;;5072121;28;20424;-51
2023/04/01 08:52:22;;;;;;;15.30;13.55;;;10.70;99.90;;;;;;5073208;28;20039;-52
2023/04/01 08:55:21;;;;;;;15.38;13.02;;;10.80;99.90;;;;;;5073084;28;20385;-51
2023/04/01 08:58:23;;;;;;;14.20;11.60;;;10.70;99.90;;;;;;5072154;28;20063;-51
2023/04/01 09:00:52;;;;;;;13.38;11.68;;;11.00;99.90;;;;;;5072318;28;20048;-52
2023/04/01 09:03:54;;;;;;;11.68;9.80;;;11.10;99.90;;;;;;5072823;28;20048;-52
2023/04/01 09:06:49;;;;;;;13.63;11.02;;;11.10;99.90;;;;;;5071994;28;20059;-51
2023/04/01 09:09:24;;;;;;;14.15;12.50;;;11.20;99.90;;;;;;5059738;28;20652;-51
2023/04/01 09:12:17;;;;;;;14.13;11.90;;;11.30;99.90;;;;;;5072781;28;20056;-52
2023/04/01 09:15:06;;;;;;;13.35;9.88;;;13.40;99.90;;;;;;5071830;28;20043;-52
2023/04/01 09:17:35;;;;;;;7.63;5.10;;;11.10;99.90;;;;;;5072392;28;20036;-52
2023/04/01 09:20:34;;;;;;;11.30;8.13;;;11.00;99.90;;;;;;5071604;28;20040;-52
2023/04/01 09:23:37;;;;;;;10.23;7.00;;;10.80;99.90;;;;;;5072984;28;20044;-53
2023/04/01 09:26:39;;;;;;;9.70;7.22;;;10.80;99.90;;;;;;5071696;28;20048;-53
2023/04/01 09:29:49;;;;;;;7.97;5.43;;;10.70;99.90;;;;;;5075943;28;20040;-52
2023/04/01 09:32:27;;;;;;;9.02;6.70;;;11.00;99.90;;;;;;5077190;28;20036;-49
2023/04/01 09:34:55;;;;;;;8.18;5.50;;;11.00;99.90;;;;;;5076128;28;20060;-53
2023/04/01 09:37:46;;;;;;;9.20;6.70;;;10.70;99.90;;;;;;5077234;28;20050;-52
2023/04/01 09:40:17;;;;;;;8.35;5.43;;;10.60;99.90;;;;;;5076706;28;20267;-49
2023/04/01 09:43:02;;;;;;;6.03;3.55;;;10.40;99.90;;;;;;5077790;28;20055;-49
2023/04/01 09:45:51;;;;;;;8.77;4.75;;;10.20;99.90;;;;;;5076838;28;20192;-51
2023/04/01 09:48:49;;;;;;;7.13;3.28;;;10.10;99.90;;;;;;5076301;28;20044;-49
2023/04/01 09:51:42;;;;;;;10.68;4.05;;;10.00;99.90;;;;;;5052553;28;20068;-52
2023/04/01 09:54:28;;;;;;;8.13;5.35;;;9.90;99.90;;;;;;5077155;28;20075;-50
2023/04/01 09:57:41;;;;;;;6.00;4.15;;;9.90;99.90;;;;;;5077003;28;20048;-52
2023/04/01 10:00:33;;;;;;;3.72;2.28;;;9.80;99.90;;;;;;5072708;28;20534;-49
2023/04/01 10:02:59;;;;;;;5.28;3.20;;;9.90;99.90;;;;;;5075502;28;20060;-51
2023/04/01 10:06:04;;;;;;;6.03;3.40;;;10.00;99.90;;;;;;5076515;28;20156;-52
2023/04/01 10:08:51;;;;;;;6.10;3.13;;;10.10;99.90;;;;;;5063839;28;20052;-53
2023/04/01 10:11:24;;;;;;;7.53;3.55;;;9.90;99.90;;;;;;5075175;28;20097;-52
2023/04/01 10:14:01;;;;;;;5.82;3.63;;;10.50;99.90;;;;;;5075979;28;20044;-51
2023/04/01 10:17:05;;;;;;;7.18;4.03;;;10.00;99.90;;;;;;5075700;28;20732;-51
2023/04/01 10:19:51;;;;;;;6.07;3.55;;;9.90;99.90;;;;;;5031654;28;20076;-53
2023/04/01 10:22:38;;;;;;;6.40;3.20;;;9.90;99.90;;;;;;5031355;28;20948;-51
2023/04/01 10:25:28;;;;;;;6.97;4.07;;;9.90;99.90;;;;;;5063461;28;20043;-53
2023/04/01 10:28:19;;;;;;;6.55;2.92;;;9.70;99.90;;;;;;5074746;28;20059;-53
2023/04/01 10:31:00;;;;;;;5.28;2.95;;;9.80;99.90;;;;;;5074791;28;20055;-53
2023/04/01 10:34:03;;;;;;;5.20;3.42;;;9.90;99.90;;;;;;5073795;28;20078;-54
2023/04/01 10:36:41;;;;;;;6.82;3.67;;;9.80;99.90;;;;;;5075965;28;20063;-53
2023/04/01 10:39:29;;;;;;;7.45;3.53;;;9.80;99.90;;;;;;5074490;28;20424;-50
2023/04/01 10:42:19;;;;;;;7.10;2.65;;;9.70;99.90;;;;;;5074999;28;20102;-52
2023/04/01 10:45:06;;;;;;;5.68;2.60;;;9.80;99.90;;;;;;5074529;28;20062;-53
2023/04/01 10:48:06;;;;;;;7.47;2.53;;;10.00;99.90;;;;;;5073886;28;20061;-49
2023/04/01 10:51:02;;;;;;;4.75;2.33;;;9.80;99.90;;;;;;5074918;28;20032;-54
2023/04/01 10:53:47;;;;;;;7.40;3.65;;;9.60;99.90;;;;;;5074689;28;20036;-53
2023/04/01 10:56:16;;;;;;;8.00;4.45;;;9.50;99.90;;;;;;5074798;28;20036;-51
2023/04/01 10:59:00;;;;;;;5.72;2.78;;;9.40;99.90;;;;;;5074393;28;20044;-51
2023/04/01 11:01:47;;;;;;;4.45;2.20;;;9.40;99.90;;;;;;5074218;28;20142;-53
2023/04/01 11:04:56;;;;;;;5.53;2.17;;;9.60;99.90;;;;;;5072306;28;20106;-54
2023/04/01 11:08:12;;;;;;;4.80;1.67;;;9.90;99.90;;;;;;5074348;28;20478;-52
2023/04/01 11:10:40;;;;;;;4.25;1.90;;;9.80;99.90;;;;;;5075260;28;20051;-55
2023/04/01 11:13:25;;;;;;;4.03;1.90;;;9.80;99.90;;;;;;5075400;28;20138;-53
2023/04/01 11:16:19;;;;;;;4.10;2.08;;;10.10;99.90;;;;;;5074689;28;20040;-55
2023/04/01 11:19:29;;;;;;;3.50;2.10;;;9.80;99.90;;;;;;5074256;28;20052;-54
2023/04/01 11:22:22;;;;;;;4.53;2.20;;;10.00;99.90;;;;;;5073618;28;20032;-54
2023/04/01 11:25:05;;;;;;;3.13;1.92;;;9.90;99.90;;;;;;5042264;28;20109;-54
2023/04/01 11:27:40;;;;;;;3.97;2.20;;;10.00;99.90;;;;;;5073342;28;20086;-54
2023/04/01 11:30:35;;;;;;;3.92;2.42;;;9.80;99.90;;;;;;5072479;28;20071;-53
2023/04/01 11:33:23;;;;;;;3.67;1.90;;;10.10;99.90;;;;;;5069144;28;20080;-56
2023/04/01 11:35:54;;;;;;;7.55;2.78;;;10.00;99.90;;;;;;5073451;28;20499;-56
2023/04/01 11:38:35;;;;;;;6.20;2.42;;;9.90;99.90;;;;;;5073579;28;20040;-55
2023/04/01 11:41:18;;;;;;;6.40;2.25;;;9.90;99.90;;;;;;5072927;28;20063;-54
2023/04/01 11:44:23;;;;;;;5.85;2.85;;;10.00;99.90;;;;;;5073093;28;20580;-55
2023/04/01 11:47:13;;;;;;;5.30;2.30;;;9.90;99.90;;;;;;5073097;28;20036;-54
2023/04/01 11:50:04;;;;;;;5.40;2.80;;;9.90;99.90;;;;;;5073284;28;20028;-53
2023/04/01 11:52:45;;;;;;;4.60;2.47;;;9.80;99.90;;;;;;5072302;28;20047;-54
2023/04/01 11:55:37;;;;;;;5.80;2.45;;;9.90;99.90;;;;;;5071805;28;20251;-56
2023/04/01 11:58:49;;;;;;;4.10;1.98;;;9.60;99.90;;;;;;5071533;28;20516;-55
2023/04/01 12:01:42;;;;;;;3.83;1.88;;;9.60;99.90;;;;;;5072267;28;20196;-55
2023/04/01 12:04:33;;;;;;;5.85;2.50;;;9.50;99.90;;;;;;5072476;28;20048;-55
2023/04/01 12:07:24;;;;;;;4.15;2.20;;;9.50;99.90;;;;;;5073730;28;20036;-54
2023/04/01 12:10:01;;;;;;;1.88;1.10;;;9.50;99.90;;;;;;5072811;28;20044;-54
2023/04/01 12:12:49;;;;;;;2.42;1.17;;;9.60;99.90;;;;;;5072624;28;20059;-55
2023/04/01 12:15:39;;;;;;;1.63;1.00;;;9.60;99.90;;;;;;5057780;28;20040;-55
2023/04/01 12:18:26;;;;;;;3.35;1.77;;;9.50;99.90;;;;;;5073354;28;20733;-54
2023/04/01 12:21:04;;;;;;;3.78;1.45;;;9.90;99.90;;;;;;5073382;28;20048;-55
2023/04/01 12:24:00;;;;;;;2.25;1.40;;;9.70;99.90;;;;;;5071932;28;20036;-55
2023/04/01 12:26:32;;;;;;;4.32;2.10;;;9.80;99.90;;;;;;5073419;28;20107;-54
2023/04/01 12:29:25;;;;;;;3.97;1.77;;;9.80;99.90;;;;;;5072620;28;20564;-54
2023/04/01 12:31:57;;;;;;;5.57;1.42;;;9.70;99.90;;;;;;5072271;28;20101;-54
2023/04/01 12:35:06;;;;;;;3.95;2.08;;;9.70;99.90;;;;;;5072822;28;20520;-55
2023/04/01 12:37:45;;;;;;;4.65;1.70;;;9.70;99.90;;;;;;5073098;28;20128;-55
2023/04/01 12:40:23;;;;;;;4.97;1.80;;;9.60;99.90;;;;;;5072027;28;20342;-55
2023/04/01 12:42:55;;;;;;;3.33;1.95;;;9.70;99.90;;;;;;5073017;28;20040;-55
2023/04/01 12:45:45;;;;;;;4.38;2.40;;;9.80;99.90;;;;;;5073218;28;20256;-55
2023/04/01 12:48:32;;;;;;;2.45;1.10;;;9.80;99.90;;;;;;5072231;28;20776;-55
2023/04/01 12:51:11;;;;;;;4.15;1.65;;;9.90;99.90;;;;;;5072021;28;20899;-55
2023/04/01 12:53:43;;;;;;;4.85;1.98;;;9.70;99.90;;;;;;5071829;28;20036;-55
2023/04/01 12:56:47;;;;;;;5.30;2.13;;;9.80;99.90;;;;;;5071410;28;20044;-55
2023/04/01 12:59:35;;;;;;;4.15;1.92;;;9.60;99.90;;;;;;5071587;28;20056;-54
2023/04/01 13:02:23;;;;;;;6.35;1.80;;;9.60;99.90;;;;;;5071386;28;20131;-56
2023/04/01 13:05:11;;;;;;;3.25;1.65;;;9.80;99.90;;;;;;5070976;28;20056;-55
2023/04/01 13:08:04;;;;;;;3.72;1.52;;;9.80;99.90;;;;;;5071188;28;20089;-56
2023/04/01 13:10:41;;;;;;;;;;;9.70;99.90;;;;;;5072826;28;20064;-56
2023/04/01 13:13:35;;;;;;;3.67;1.60;;;9.70;99.90;;;;;;5072206;28;20382;-61
2023/04/01 13:16:06;;;;;;;3.53;1.88;;;9.60;99.90;;;;;;5072242;28;20039;-55
2023/04/01 13:18:44;;;;;;;2.80;1.80;;;9.50;99.90;;;;;;5071082;28;20048;-53
2023/04/01 13:21:34;;;;;;;4.70;2.22;;;9.60;99.90;;;;;;5071181;28;20059;-56
2023/04/01 13:24:19;;;;;;;3.65;1.50;;;9.80;99.90;;;;;;5070716;28;20040;-56
2023/04/01 13:27:14;;;;;;;2.95;1.20;;;9.70;99.90;;;;;;5071166;28;20114;-55
2023/04/01 13:29:45;;;;;;;2.97;1.73;;;9.70;99.90;;;;;;5066284;28;20459;-55
2023/04/01 13:32:16;;;;;;;1.92;1.10;;;9.70;99.90;;;;;;5070671;28;20067;-55
2023/04/01 13:35:02;;;;;;;3.00;1.65;;;9.60;99.90;;;;;;5069122;28;20568;-56
2023/04/01 13:37:58;;;;;;;3.80;1.48;;;9.80;99.90;;;;;;5070681;28;20104;-55